createdAt,value
2018-08-16T05:14:08.306Z,82.37
2018-08-16T05:15:14.059Z,82.25
2018-08-16T05:16:35.171Z,82.20
2018-08-16T05:18:59.445Z,81.91
2018-08-16T05:20:02.747Z,82.63
2018-08-16T05:21:05.811Z,82.59
2018-08-16T05:22:14.477Z,81.72
2018-08-16T05:23:18.753Z,82.38
2018-08-16T05:24:22.788Z,83.18
2018-08-16T05:25:25.976Z,82.72
2018-08-16T05:26:28.812Z,83.05
2018-08-16T05:27:31.698Z,82.42
2018-08-16T05:28:34.627Z,82.48
2018-08-16T05:29:38.056Z,83.11
2018-08-16T05:30:41.401Z,82.57
2018-08-16T05:31:45.521Z,82.83
2018-08-16T05:32:48.893Z,82.60
2018-08-16T05:33:52.303Z,82.67
2018-08-16T05:34:56.136Z,82.88
2018-08-16T05:36:02.750Z,82.86
2018-08-16T05:37:06.973Z,82.46
2018-08-16T05:38:10.402Z,82.73
2018-08-16T05:39:14.423Z,82.44
2018-08-16T05:40:18.724Z,82.09
2018-08-16T05:41:21.989Z,81.86
2018-08-16T05:42:25.805Z,81.60
2018-08-16T05:43:29.069Z,81.43
2018-08-16T05:44:33.566Z,82.14
2018-08-16T05:45:42.114Z,81.56
2018-08-16T05:46:46.765Z,81.34
2018-08-16T05:47:50.623Z,81.14
2018-08-16T05:48:53.843Z,80.65
2018-08-16T05:50:00.775Z,80.74
2018-08-16T05:51:04.472Z,80.88
2018-08-16T05:52:07.612Z,80.82
2018-08-16T05:53:15.693Z,81.26
2018-08-16T05:54:23.229Z,80.75
2018-08-16T05:55:26.152Z,80.24
2018-08-16T05:56:29.780Z,80.04
2018-08-16T05:57:34.978Z,79.54
2018-08-16T05:58:39.542Z,79.99
2018-08-16T05:59:42.863Z,79.41
2018-08-16T06:00:45.786Z,79.55
2018-08-16T06:01:55.739Z,79.26
2018-08-16T06:05:33.622Z,78.59
2018-08-16T06:06:39.113Z,78.01
2018-08-16T06:07:42.655Z,78.30
2018-08-16T06:08:45.743Z,77.78
2018-08-16T06:09:51.279Z,77.41
2018-08-16T06:10:54.891Z,77.26
2018-08-16T06:11:58.485Z,77.84
2018-08-16T06:13:01.583Z,77.13
2018-08-16T06:14:04.839Z,77.32
2018-08-16T06:15:08.912Z,76.94
2018-08-16T06:16:13.460Z,77.04
2018-08-16T06:17:16.674Z,77.31
2018-08-16T06:18:21.095Z,76.96
2018-08-16T06:19:24.948Z,77.13
2018-08-16T06:20:28.140Z,77.05
2018-08-16T06:21:33.495Z,76.29
2018-08-16T06:22:36.926Z,76.56
2018-08-16T06:23:42.243Z,76.34
2018-08-16T06:24:45.571Z,75.40
2018-08-16T06:25:49.727Z,75.99
2018-08-16T06:26:54.073Z,75.75
2018-08-16T06:27:57.658Z,74.69
2018-08-16T06:29:01.091Z,74.93
2018-08-16T06:30:04.614Z,74.46
2018-08-16T06:31:07.624Z,74.89
2018-08-16T06:32:11.220Z,73.67
2018-08-16T06:33:14.707Z,74.14
2018-08-16T06:34:18.274Z,72.97
2018-08-16T06:35:22.959Z,72.57
2018-08-16T06:36:26.061Z,73.19
2018-08-16T06:37:29.986Z,72.71
2018-08-16T06:38:32.986Z,71.75
2018-08-16T06:39:35.990Z,71.94
2018-08-16T06:40:39.283Z,71.71
2018-08-16T06:41:42.874Z,72.01
2018-08-16T06:42:46.591Z,70.82
2018-08-16T06:43:49.549Z,71.41
2018-08-16T06:44:53.007Z,71.07
2018-08-16T06:45:56.228Z,71.08
2018-08-16T06:47:00.386Z,70.54
2018-08-16T06:49:12.479Z,69.73
2018-08-16T06:50:15.400Z,69.43
2018-08-16T06:51:18.711Z,69.16
2018-08-16T06:52:23.908Z,68.32
2018-08-16T06:53:27.405Z,68.22
2018-08-16T06:54:32.471Z,68.06
2018-08-16T06:55:35.439Z,66.90
2018-08-16T06:56:38.298Z,66.70
2018-08-16T06:57:42.134Z,66.67
2018-08-16T06:58:48.109Z,65.40
2018-08-16T06:59:51.669Z,64.78
2018-08-16T07:00:55.637Z,64.45
2018-08-16T07:01:59.219Z,62.94
2018-08-16T07:03:02.830Z,62.80
2018-08-16T07:04:05.996Z,62.76
2018-08-16T07:05:09.790Z,61.53
2018-08-16T07:06:13.219Z,60.88
2018-08-16T07:07:20.047Z,60.78
2018-08-16T07:08:24.520Z,61.14
2018-08-16T07:09:27.541Z,60.30
2018-08-16T07:10:31.478Z,60.55
2018-08-16T07:11:35.424Z,60.99
2018-08-16T07:12:38.412Z,60.27
2018-08-16T07:13:42.468Z,59.72
2018-08-16T07:14:47.169Z,59.63
2018-08-16T07:15:53.033Z,59.52
2018-08-16T07:16:56.268Z,59.17
2018-08-16T07:18:00.672Z,58.34
2018-08-16T07:19:04.937Z,58.60
2018-08-16T07:20:08.761Z,59.08
2018-08-16T07:21:12.628Z,58.29
2018-08-16T07:22:15.870Z,57.56
2018-08-16T07:23:19.990Z,58.49
2018-08-16T07:24:22.974Z,56.88
2018-08-16T07:25:26.401Z,57.31
2018-08-16T07:26:30.960Z,57.02
2018-08-16T07:27:34.233Z,56.35
2018-08-16T07:28:39.130Z,56.11
2018-08-16T07:29:42.160Z,55.40
2018-08-16T07:30:45.204Z,55.77
2018-08-16T07:31:48.299Z,56.61
2018-08-16T07:32:52.006Z,54.78
2018-08-16T07:33:55.525Z,54.75
2018-08-16T07:34:59.504Z,54.96
2018-08-16T07:36:04.834Z,56.16
2018-08-16T07:37:09.291Z,55.96
2018-08-16T07:39:25.944Z,53.88
2018-08-16T07:40:29.504Z,54.09
2018-08-16T07:41:33.550Z,54.82
2018-08-16T07:42:40.453Z,53.23
2018-08-16T07:43:44.089Z,53.17
2018-08-16T07:44:51.229Z,53.23
2018-08-16T07:45:56.168Z,52.90
2018-08-16T07:46:59.137Z,53.76
2018-08-16T07:48:03.247Z,53.66
2018-08-16T07:49:09.051Z,55.08
2018-08-16T07:50:13.981Z,53.25
2018-08-16T07:51:17.635Z,53.11
2018-08-16T07:52:20.745Z,51.67
2018-08-16T07:53:23.822Z,51.48
2018-08-16T07:54:27.615Z,51.84
2018-08-16T07:55:30.699Z,51.71
2018-08-16T07:56:33.636Z,51.83
2018-08-16T07:57:37.308Z,51.27
2018-08-16T07:58:40.741Z,52.47
2018-08-16T07:59:43.803Z,51.10
2018-08-16T08:00:51.014Z,50.21
2018-08-16T08:01:57.456Z,50.68
2018-08-16T08:03:01.753Z,50.76
2018-08-16T08:04:06.458Z,50.10
2018-08-16T08:05:10.475Z,50.08
2018-08-16T08:06:14.097Z,52.32
2018-08-16T08:07:18.888Z,51.17
2018-08-16T08:08:22.891Z,51.98
2018-08-16T08:09:29.105Z,51.38
2018-08-16T08:11:46.648Z,49.08
2018-08-16T08:12:49.789Z,48.42
2018-08-16T08:15:17.094Z,47.65
2018-08-16T08:16:21.009Z,48.24
2018-08-16T08:17:26.097Z,47.38
2018-08-16T08:18:29.931Z,47.59
2018-08-16T08:19:33.490Z,48.82
2018-08-16T08:20:38.618Z,48.38
2018-08-16T08:21:41.723Z,49.45
2018-08-16T08:22:46.248Z,49.29
2018-08-16T08:23:49.974Z,49.03
2018-08-16T08:24:53.650Z,49.15
2018-08-16T08:25:57.029Z,47.07
2018-08-16T08:27:05.075Z,48.28
2018-08-16T08:28:09.728Z,48.55
2018-08-16T08:29:17.199Z,48.66
2018-08-16T08:30:21.773Z,48.93
2018-08-16T08:31:26.555Z,48.70
2018-08-16T08:32:30.521Z,48.63
2018-08-16T08:33:33.693Z,47.78
2018-08-16T08:34:38.589Z,49.48
2018-08-16T08:35:48.720Z,48.50
2018-08-16T08:36:59.411Z,48.91
2018-08-16T08:38:05.887Z,48.93
2018-08-16T08:39:13.798Z,47.66
2018-08-16T08:40:18.028Z,47.36
2018-08-16T08:41:20.879Z,47.19
2018-08-16T08:42:25.243Z,48.16
2018-08-16T08:43:31.188Z,46.87
2018-08-16T08:44:37.162Z,46.98
2018-08-16T08:45:46.775Z,47.19
2018-08-16T08:46:52.724Z,46.59
2018-08-16T08:47:56.795Z,47.21
2018-08-16T08:49:00.288Z,46.80
2018-08-16T08:50:03.320Z,47.75
2018-08-16T08:51:10.449Z,47.04
2018-08-16T08:52:14.855Z,47.29
2018-08-16T08:53:18.287Z,47.31
2018-08-16T08:54:22.330Z,47.02
2018-08-16T08:55:27.102Z,46.93
2018-08-16T08:56:30.014Z,46.40
2018-08-16T08:57:33.547Z,47.31
2018-08-16T08:58:43.216Z,47.49
2018-08-16T08:59:47.391Z,48.14
2018-08-16T09:00:50.480Z,47.92
2018-08-16T09:01:59.737Z,46.43
2018-08-16T09:03:02.650Z,46.25
2018-08-16T09:04:05.602Z,47.24
2018-08-16T09:05:08.688Z,47.49
2018-08-16T09:06:13.210Z,47.16
2018-08-16T09:07:18.476Z,45.81
2018-08-16T09:08:21.809Z,45.63
2018-08-16T09:09:24.976Z,45.46
2018-08-16T09:10:28.472Z,45.22
2018-08-16T09:11:32.535Z,46.09
2018-08-16T09:12:36.799Z,45.53
2018-08-16T09:13:42.284Z,43.80
2018-08-16T09:14:49.992Z,44.49
2018-08-16T09:15:56.692Z,45.00
2018-08-16T09:17:01.141Z,44.36
2018-08-16T09:18:06.324Z,43.86
2018-08-16T09:19:17.461Z,44.98
2018-08-16T09:20:22.675Z,44.69
2018-08-16T09:21:27.649Z,45.33
2018-08-16T09:22:31.113Z,44.44
2018-08-16T09:23:34.562Z,44.20
2018-08-16T09:24:38.336Z,44.34
2018-08-16T09:25:42.607Z,44.50
2018-08-16T09:26:47.318Z,45.82
2018-08-16T09:27:51.750Z,45.78
2018-08-16T09:30:05.007Z,44.49
2018-08-16T09:31:09.580Z,44.77
2018-08-16T09:32:13.056Z,44.29
2018-08-16T09:33:17.568Z,42.88
2018-08-16T09:34:23.427Z,42.18
2018-08-16T09:35:27.794Z,43.12
2018-08-16T09:36:32.208Z,42.76
2018-08-16T09:37:40.283Z,43.82
2018-08-16T09:38:48.022Z,44.41
2018-08-16T09:39:52.831Z,46.41
2018-08-16T09:40:56.625Z,44.59
2018-08-16T09:42:00.112Z,44.26
2018-08-16T09:43:03.455Z,44.16
2018-08-16T09:44:07.229Z,43.49
2018-08-16T09:45:10.497Z,42.73
2018-08-16T09:46:14.124Z,43.43
2018-08-16T09:47:17.831Z,42.95
2018-08-16T09:48:21.062Z,43.96
2018-08-16T09:49:25.738Z,42.47
2018-08-16T09:50:29.539Z,42.92
2018-08-16T09:51:34.022Z,43.04
2018-08-16T09:52:38.142Z,44.02
2018-08-16T09:53:42.090Z,44.19
2018-08-16T09:54:47.045Z,43.62
2018-08-16T09:55:50.513Z,42.57
2018-08-16T09:56:55.594Z,43.72
2018-08-16T09:57:59.309Z,44.51
2018-08-16T09:59:02.864Z,44.67
2018-08-16T10:00:07.273Z,43.19
2018-08-16T10:01:12.641Z,40.61
2018-08-16T10:02:16.451Z,40.84
2018-08-16T10:03:20.217Z,40.43
2018-08-16T10:04:25.960Z,40.20
2018-08-16T10:05:31.552Z,41.01
2018-08-16T10:06:36.702Z,39.29
2018-08-16T10:07:40.476Z,39.85
2018-08-16T10:08:44.833Z,39.72
2018-08-16T10:09:48.290Z,38.22
2018-08-16T10:10:52.688Z,38.45
2018-08-16T10:12:00.489Z,41.00
2018-08-16T10:13:04.930Z,41.36
2018-08-16T10:14:10.742Z,41.91
2018-08-16T10:15:14.127Z,42.03
2018-08-16T10:16:18.343Z,42.29
2018-08-16T10:17:22.353Z,42.17
2018-08-16T10:18:27.593Z,41.72
2018-08-16T10:19:32.725Z,43.30
2018-08-16T10:20:36.726Z,42.65
2018-08-16T10:21:41.269Z,42.29
2018-08-16T10:22:45.355Z,41.25
2018-08-16T10:23:48.846Z,39.57
2018-08-16T10:24:52.981Z,40.86
2018-08-16T10:25:57.350Z,41.57
2018-08-16T10:27:02.803Z,41.74
2018-08-16T10:28:07.666Z,42.38
2018-08-16T10:29:18.607Z,42.18
2018-08-16T10:30:29.019Z,42.49
2018-08-16T10:31:40.772Z,42.65
2018-08-16T10:32:44.372Z,43.26
2018-08-16T10:33:49.272Z,42.44
2018-08-16T10:34:53.756Z,41.88
2018-08-16T10:36:02.666Z,42.35
2018-08-16T10:37:06.898Z,41.85
2018-08-16T10:38:12.130Z,39.95
2018-08-16T10:39:18.615Z,40.40
2018-08-16T10:40:21.519Z,40.04
2018-08-16T10:41:24.670Z,40.88
2018-08-16T10:42:30.693Z,41.09
2018-08-16T10:43:38.416Z,40.00
2018-08-16T10:44:42.057Z,40.36
2018-08-16T10:45:45.377Z,39.97
2018-08-16T10:46:48.547Z,42.51
2018-08-16T10:47:51.496Z,41.63
2018-08-16T10:48:54.592Z,41.17
2018-08-16T10:49:57.623Z,41.78
2018-08-16T10:51:01.289Z,40.28
2018-08-16T10:52:04.749Z,40.92
2018-08-16T10:53:07.750Z,39.86
2018-08-16T10:54:11.373Z,41.10
2018-08-16T10:55:14.493Z,40.52
2018-08-16T10:56:17.636Z,40.24
2018-08-16T10:57:21.545Z,40.24
2018-08-16T10:58:24.548Z,39.18
2018-08-16T10:59:27.448Z,40.91
2018-08-16T11:00:31.520Z,41.02
2018-08-16T11:01:34.402Z,40.21
2018-08-16T11:02:38.516Z,39.29
2018-08-16T11:03:41.689Z,39.03
2018-08-16T11:04:44.767Z,38.59
2018-08-16T11:05:48.242Z,39.31
2018-08-16T11:06:51.276Z,38.55
2018-08-16T11:07:55.238Z,39.54
2018-08-16T11:08:58.158Z,39.31
2018-08-16T11:10:02.510Z,39.59
2018-08-16T11:11:06.394Z,39.42
2018-08-16T11:12:09.297Z,39.13
2018-08-16T11:13:12.235Z,39.08
2018-08-16T11:14:18.915Z,37.74
2018-08-16T11:15:24.089Z,37.34
2018-08-16T11:16:27.392Z,36.77
2018-08-16T11:17:33.909Z,36.91
2018-08-16T11:18:36.791Z,38.55
2018-08-16T11:19:40.463Z,38.47
2018-08-16T11:20:44.153Z,38.96
2018-08-16T11:21:48.166Z,39.55
2018-08-16T11:22:51.360Z,39.27
2018-08-16T11:23:57.343Z,38.59
2018-08-16T11:25:02.156Z,38.42
2018-08-16T11:26:06.312Z,39.00
2018-08-16T11:27:10.543Z,38.59
2018-08-16T11:28:14.365Z,39.05
2018-08-16T11:29:18.663Z,37.68
2018-08-16T11:30:21.571Z,37.87
2018-08-16T11:31:24.492Z,38.52
2018-08-16T11:32:27.317Z,38.95
2018-08-16T11:33:31.442Z,38.39
2018-08-16T11:34:34.324Z,39.57
2018-08-16T11:35:37.539Z,38.91
2018-08-16T11:36:40.492Z,39.07
2018-08-16T11:37:43.398Z,39.11
2018-08-16T11:38:46.303Z,38.14
2018-08-16T11:39:49.219Z,38.89
2018-08-16T11:40:52.153Z,38.34
2018-08-16T11:41:55.352Z,38.19
2018-08-16T11:42:58.252Z,38.29
2018-08-16T11:44:01.575Z,37.25
2018-08-16T11:45:05.584Z,38.37
2018-08-16T11:46:08.611Z,38.59
2018-08-16T11:47:11.473Z,38.00
2018-08-16T11:48:14.677Z,38.02
2018-08-16T11:49:17.593Z,37.43
2018-08-16T11:50:20.583Z,38.03
2018-08-16T11:51:23.422Z,38.53
2018-08-16T11:52:29.141Z,38.15
2018-08-16T11:53:32.687Z,38.60
2018-08-16T11:54:36.823Z,37.20
2018-08-16T11:55:40.432Z,37.63
2018-08-16T11:56:43.358Z,38.89
2018-08-16T11:57:47.523Z,38.68
2018-08-16T11:58:50.430Z,37.04
2018-08-16T11:59:55.647Z,37.70
2018-08-16T12:00:58.790Z,37.75
2018-08-16T12:02:01.885Z,36.94
2018-08-16T12:03:04.739Z,37.93
2018-08-16T12:04:07.675Z,38.13
2018-08-16T12:05:10.510Z,37.91
2018-08-16T12:06:15.126Z,36.97
2018-08-16T12:07:18.743Z,39.02
2018-08-16T12:08:21.705Z,38.30
2018-08-16T12:09:26.135Z,38.08
2018-08-16T12:10:28.978Z,38.16
2018-08-16T12:11:35.303Z,36.90
2018-08-16T12:12:38.401Z,35.56
2018-08-16T12:13:41.873Z,36.43
2018-08-16T12:14:44.788Z,36.66
2018-08-16T12:15:47.941Z,35.48
2018-08-16T12:16:51.769Z,36.79
2018-08-16T12:17:55.425Z,35.77
2018-08-16T12:19:00.431Z,36.12
2018-08-16T12:20:04.543Z,36.76
2018-08-16T12:21:10.828Z,36.93
2018-08-16T12:22:14.811Z,36.39
2018-08-16T12:24:33.497Z,35.08
2018-08-16T12:25:36.361Z,34.91
2018-08-16T12:26:40.581Z,35.93
2018-08-16T12:27:45.527Z,36.35
2018-08-16T12:28:54.575Z,37.65
2018-08-16T12:30:03.277Z,37.06
2018-08-16T12:31:07.734Z,36.39
2018-08-16T12:32:11.466Z,36.33
2018-08-16T12:33:19.725Z,36.08
2018-08-16T12:34:27.254Z,35.67
2018-08-16T12:35:31.679Z,35.30
2018-08-16T12:36:37.099Z,34.46
2018-08-16T12:37:41.484Z,34.45
2018-08-16T12:38:44.342Z,35.69
2018-08-16T12:39:47.397Z,34.58
2018-08-16T12:40:51.309Z,34.54
2018-08-16T12:41:54.415Z,35.65
2018-08-16T12:42:57.379Z,36.30
2018-08-16T12:44:00.571Z,35.48
2018-08-16T12:45:03.530Z,35.31
2018-08-16T12:46:08.537Z,35.98
2018-08-16T12:47:12.579Z,35.77
2018-08-16T12:48:16.658Z,35.86
2018-08-16T12:49:19.748Z,35.14
2018-08-16T12:50:23.403Z,35.82
2018-08-16T12:51:28.218Z,36.58
2018-08-16T12:52:33.485Z,35.79
2018-08-16T12:53:38.135Z,35.46
2018-08-16T12:54:49.674Z,34.77
2018-08-16T12:55:54.642Z,35.41
2018-08-16T12:57:01.508Z,35.28
2018-08-16T12:58:05.155Z,35.15
2018-08-16T12:59:08.489Z,35.70
2018-08-16T13:00:11.658Z,35.98
2018-08-16T13:01:21.232Z,35.85
2018-08-16T13:02:25.277Z,35.36
2018-08-16T13:04:40.723Z,35.77
2018-08-16T13:05:46.781Z,35.58
2018-08-16T13:06:52.066Z,34.62
2018-08-16T13:07:56.515Z,35.30
2018-08-16T13:09:00.268Z,35.86
2018-08-16T13:10:05.666Z,35.60
2018-08-16T13:11:09.839Z,36.01
2018-08-16T13:12:12.743Z,35.51
2018-08-16T13:13:16.834Z,36.12
2018-08-16T13:14:20.813Z,36.02
2018-08-16T13:15:24.540Z,34.03
2018-08-16T13:16:27.392Z,33.91
2018-08-16T13:17:30.250Z,33.21
2018-08-16T13:18:34.125Z,32.71
2018-08-16T13:21:55.801Z,32.98
2018-08-16T13:22:58.684Z,33.19
2018-08-16T13:24:03.531Z,32.43
2018-08-16T13:25:07.282Z,32.45
2018-08-16T13:26:10.483Z,32.16
2018-08-16T13:27:13.354Z,32.44
2018-08-16T13:28:18.624Z,33.15
2018-08-16T13:29:24.575Z,32.27
2018-08-16T13:30:29.212Z,32.92
2018-08-16T13:31:32.615Z,33.05
2018-08-16T13:32:36.761Z,33.75
2018-08-16T13:33:40.499Z,32.76
2018-08-16T13:34:45.319Z,31.96
2018-08-16T13:35:49.231Z,32.44
2018-08-16T13:36:57.272Z,33.51
2018-08-16T13:38:00.256Z,33.13
2018-08-16T13:39:04.198Z,31.40
2018-08-16T13:40:08.708Z,31.70
2018-08-16T13:41:12.735Z,32.57
2018-08-16T13:42:16.581Z,32.33
2018-08-16T13:43:19.505Z,31.17
2018-08-16T13:44:22.621Z,32.05
2018-08-16T13:45:26.543Z,31.94
2018-08-16T13:46:29.435Z,31.00
2018-08-16T13:47:33.302Z,30.10
2018-08-16T13:48:36.885Z,31.43
2018-08-16T13:49:42.798Z,30.90
2018-08-16T13:50:49.353Z,30.72
2018-08-16T13:51:52.501Z,31.17
2018-08-16T13:52:55.413Z,30.42
2018-08-16T13:54:03.443Z,31.55
2018-08-16T13:55:08.070Z,30.92
2018-08-16T13:56:12.557Z,29.70
2018-08-16T13:57:15.407Z,30.98
2018-08-16T13:58:19.515Z,30.78
2018-08-16T13:59:23.047Z,31.14
2018-08-16T14:00:25.923Z,30.22
2018-08-16T14:01:30.439Z,30.83
2018-08-16T14:02:34.113Z,31.38
2018-08-16T14:03:37.680Z,31.97
2018-08-16T14:04:44.563Z,32.18
2018-08-16T14:05:47.484Z,30.31
2018-08-16T14:06:50.383Z,28.88
2018-08-16T14:07:53.603Z,28.62
2018-08-16T14:08:57.471Z,29.52
2018-08-16T14:10:00.344Z,30.33
2018-08-16T14:11:03.593Z,30.18
2018-08-16T14:12:06.445Z,29.30
2018-08-16T14:13:09.262Z,29.21
2018-08-16T14:14:13.130Z,29.16
2018-08-16T14:15:16.637Z,29.49
2018-08-16T14:16:19.971Z,29.51
2018-08-16T14:17:23.274Z,28.63
2018-08-16T14:18:27.264Z,27.58
2018-08-16T14:19:30.204Z,27.18
2018-08-16T14:20:33.695Z,29.01
2018-08-16T14:21:37.152Z,30.18
2018-08-16T14:22:40.161Z,28.45
2018-08-16T14:23:47.557Z,29.99
2018-08-16T14:24:50.441Z,29.25
2018-08-16T14:25:53.395Z,28.70
2018-08-16T14:26:56.469Z,28.24
2018-08-16T14:27:59.347Z,29.30
2018-08-16T14:29:04.047Z,30.57
2018-08-16T14:30:07.179Z,30.59
2018-08-16T14:31:10.071Z,29.91
2018-08-16T14:32:13.791Z,28.93
2018-08-16T14:33:18.064Z,28.46
2018-08-16T14:34:21.057Z,30.14
2018-08-16T14:35:23.966Z,30.02
2018-08-16T14:36:28.329Z,31.24
2018-08-16T14:37:31.505Z,31.62
2018-08-16T14:38:35.477Z,32.04
2018-08-16T14:39:38.390Z,30.93
2018-08-16T14:40:41.271Z,31.04
2018-08-16T14:43:01.863Z,31.37
2018-08-16T14:44:05.370Z,30.70
2018-08-16T14:45:08.297Z,29.53
2018-08-16T14:46:11.253Z,27.89
2018-08-16T14:47:14.173Z,26.99
2018-08-16T14:48:17.284Z,25.84
2018-08-16T14:49:20.963Z,24.76
2018-08-16T14:50:24.334Z,24.54
2018-08-16T14:51:27.802Z,22.00
2018-08-16T14:52:31.515Z,20.69
2018-08-16T14:53:36.343Z,20.68
2018-08-16T14:54:39.498Z,20.72
2018-08-16T14:55:42.873Z,21.06
2018-08-16T14:56:45.908Z,20.74
2018-08-16T14:57:48.873Z,21.29
2018-08-16T14:58:52.521Z,21.56
2018-08-16T14:59:55.755Z,23.47
2018-08-16T15:00:59.677Z,25.00
2018-08-16T15:02:03.142Z,26.16
2018-08-16T15:03:06.682Z,26.90
2018-08-16T15:04:11.704Z,24.25
2018-08-16T15:05:14.603Z,22.97
2018-08-16T15:06:17.507Z,22.73
2018-08-16T15:07:21.784Z,23.21
2018-08-16T15:08:25.291Z,22.52
2018-08-16T15:10:40.809Z,19.74
2018-08-16T15:11:44.650Z,19.14
2018-08-16T15:12:47.589Z,19.12
2018-08-16T15:13:54.242Z,20.12
2018-08-16T15:14:57.259Z,21.17
2018-08-16T15:16:00.535Z,22.41
2018-08-16T15:17:03.562Z,23.90
2018-08-16T15:18:07.672Z,24.12
2018-08-16T15:19:10.591Z,24.04
2018-08-16T15:20:13.811Z,24.25
2018-08-16T15:21:16.913Z,24.66
2018-08-16T15:22:19.850Z,24.27
2018-08-16T15:23:22.751Z,25.85
2018-08-16T15:24:25.624Z,24.16
2018-08-16T15:25:29.437Z,24.42
2018-08-16T15:26:36.535Z,23.07
2018-08-16T15:27:40.512Z,21.25
2018-08-16T15:28:43.428Z,20.42
2018-08-16T15:29:46.463Z,19.95
2018-08-16T15:30:49.671Z,20.68
2018-08-16T15:31:52.613Z,22.07
2018-08-16T15:32:56.480Z,23.55
2018-08-16T15:33:59.505Z,23.98
2018-08-16T15:35:05.271Z,24.71
2018-08-16T15:36:08.212Z,26.07
2018-08-16T15:37:11.300Z,24.67
2018-08-16T15:38:14.171Z,25.69
2018-08-16T15:39:17.339Z,25.05
2018-08-16T15:40:20.373Z,24.21
2018-08-16T15:41:23.936Z,24.83
2018-08-16T15:42:26.922Z,26.00
2018-08-16T15:43:29.839Z,25.00
2018-08-16T15:44:33.544Z,24.68
2018-08-16T15:45:37.506Z,22.76
2018-08-16T15:46:40.543Z,23.68
2018-08-16T15:47:43.408Z,23.79
2018-08-16T15:48:46.258Z,23.36
2018-08-16T15:49:50.257Z,23.48
2018-08-16T15:50:53.153Z,22.95
2018-08-16T15:51:56.632Z,23.21
2018-08-16T15:52:59.558Z,22.80
2018-08-16T15:54:02.656Z,22.49
2018-08-16T15:55:06.669Z,22.12
2018-08-16T15:56:09.804Z,22.07
2018-08-16T15:57:13.509Z,21.11
2018-08-16T15:58:16.712Z,20.41
2018-08-16T15:59:19.809Z,21.94
2018-08-16T16:00:22.637Z,21.29
2018-08-16T16:01:25.571Z,22.18
2018-08-16T16:02:28.446Z,20.38
2018-08-16T16:03:31.860Z,21.11
2018-08-16T16:04:35.216Z,23.92
2018-08-16T16:05:38.146Z,26.44
2018-08-16T16:06:41.057Z,25.49
2018-08-16T16:07:44.635Z,23.71
2018-08-16T16:08:47.561Z,23.11
2018-08-16T16:09:53.376Z,22.48
2018-08-16T16:10:58.549Z,22.21
2018-08-16T16:12:02.521Z,23.14
2018-08-16T17:26:26.624Z,30.64
2018-08-16T17:27:32.717Z,31.44
2018-08-16T17:28:35.951Z,30.02
2018-08-16T17:30:48.463Z,30.48
2018-08-16T17:31:55.250Z,31.70
2018-08-16T17:32:58.710Z,31.87
2018-08-16T17:34:03.402Z,32.26
2018-08-16T17:35:06.532Z,31.94
2018-08-16T17:36:10.231Z,31.64
2018-08-16T17:37:17.521Z,31.71
2018-08-16T17:38:20.785Z,32.96
2018-08-16T17:39:24.695Z,31.73
2018-08-16T17:40:29.713Z,32.34
2018-08-16T17:41:35.684Z,31.55
2018-08-16T17:42:38.572Z,31.65
2018-08-16T17:43:43.566Z,32.25
2018-08-16T17:44:46.735Z,32.21
2018-08-16T17:45:50.423Z,32.31
2018-08-16T17:46:56.237Z,32.89
2018-08-16T17:48:00.731Z,32.15
2018-08-16T17:49:05.784Z,32.15
2018-08-16T17:50:08.695Z,32.55
2018-08-16T17:51:13.409Z,32.81
2018-08-16T17:52:16.301Z,32.21
2018-08-16T17:53:20.233Z,31.47
2018-08-16T17:54:23.078Z,31.82
2018-08-16T17:55:25.912Z,32.66
2018-08-16T17:56:28.754Z,32.98
2018-08-16T17:57:33.114Z,33.41
2018-08-16T17:58:36.565Z,32.03
2018-08-16T17:59:42.523Z,32.64
2018-08-16T18:00:47.639Z,32.49
2018-08-16T18:01:50.606Z,34.01
2018-08-16T18:02:55.415Z,32.74
2018-08-16T18:04:01.702Z,33.72
2018-08-16T18:05:05.238Z,34.11
2018-08-16T18:06:11.028Z,32.36
2018-08-16T18:07:16.112Z,33.09
2018-08-16T18:08:20.423Z,32.48
2018-08-16T18:09:26.522Z,33.22
2018-08-16T18:10:31.100Z,33.26
2018-08-16T18:11:35.384Z,33.78
2018-08-16T18:12:38.492Z,34.04
2018-08-16T18:13:43.171Z,33.91
2018-08-16T18:14:47.824Z,34.23
2018-08-16T18:15:54.337Z,33.37
2018-08-16T18:16:57.768Z,33.23
2018-08-16T18:18:01.452Z,33.47
2018-08-16T18:19:04.859Z,33.23
2018-08-16T18:20:08.640Z,33.32
2018-08-16T18:21:11.825Z,33.47
2018-08-16T18:22:16.721Z,34.05
2018-08-16T18:23:22.318Z,33.48
2018-08-16T18:24:26.566Z,34.35
2018-08-16T18:25:32.109Z,33.55
2018-08-16T18:26:38.111Z,34.36
2018-08-16T18:27:45.714Z,33.47
2018-08-16T18:28:49.362Z,33.81
2018-08-16T18:29:55.283Z,33.75
2018-08-16T18:31:00.123Z,33.70
2018-08-16T18:32:05.646Z,34.54
2018-08-16T18:33:11.819Z,33.94
2018-08-16T18:34:15.654Z,34.84
2018-08-16T18:35:21.287Z,34.80
2018-08-16T18:36:30.525Z,35.11
2018-08-16T18:37:36.020Z,35.64
2018-08-16T18:38:41.910Z,35.28
2018-08-16T18:39:46.783Z,36.50
2018-08-16T18:40:52.829Z,36.43
2018-08-16T18:42:00.534Z,36.99
2018-08-16T18:43:06.282Z,37.01
2018-08-16T18:44:11.601Z,38.20
2018-08-16T18:46:33.600Z,37.44
2018-08-16T18:47:37.955Z,38.69
2018-08-16T18:48:43.050Z,37.66
2018-08-16T18:49:47.621Z,38.12
2018-08-16T18:50:52.000Z,39.06
2018-08-16T18:51:56.485Z,38.40
2018-08-16T18:53:00.299Z,38.60
2018-08-16T18:54:04.109Z,39.93
2018-08-16T18:55:11.301Z,39.36
2018-08-16T18:56:15.184Z,39.74
2018-08-16T18:57:18.716Z,40.03
2018-08-16T18:58:21.615Z,40.85
2018-08-16T18:59:26.090Z,41.02
2018-08-16T19:00:30.642Z,41.82
2018-08-16T19:01:34.861Z,41.53
2018-08-16T19:02:37.691Z,42.42
2018-08-16T19:03:40.635Z,41.70
2018-08-16T19:04:45.299Z,41.98
2018-08-16T19:05:48.605Z,41.94
2018-08-16T19:06:51.597Z,42.67
2018-08-16T19:07:54.851Z,43.19
2018-08-16T19:08:58.271Z,43.36
2018-08-16T19:10:01.139Z,43.25
2018-08-16T19:11:04.833Z,43.66
2018-08-16T19:12:08.648Z,43.53
2018-08-16T19:13:14.798Z,44.26
2018-08-16T19:14:17.701Z,44.53
2018-08-16T19:15:20.555Z,44.11
2018-08-16T19:16:25.542Z,45.31
2018-08-16T19:17:28.412Z,44.61
2018-08-16T19:18:31.276Z,45.74
2018-08-16T19:19:34.531Z,46.12
2018-08-16T19:20:38.432Z,46.43
2018-08-16T19:21:43.053Z,46.35
2018-08-16T19:22:48.499Z,46.26
2018-08-16T19:23:52.120Z,45.82
2018-08-16T19:24:56.111Z,45.72
2018-08-16T19:25:59.256Z,45.51
2018-08-16T19:27:02.844Z,44.86
2018-08-16T19:28:06.492Z,45.71
2018-08-16T19:29:09.318Z,45.50
2018-08-16T19:30:13.457Z,45.51
2018-08-16T19:31:17.949Z,45.76
2018-08-16T19:32:21.327Z,46.09
2018-08-16T19:33:24.201Z,46.16
2018-08-16T19:34:27.149Z,46.66
2018-08-16T19:35:30.622Z,46.41
2018-08-16T19:36:33.679Z,47.09
2018-08-16T19:37:38.620Z,47.74
2018-08-16T19:38:41.817Z,47.80
2018-08-16T19:39:44.822Z,47.72
2018-08-16T19:40:48.277Z,48.08
2018-08-16T19:41:53.482Z,48.37
2018-08-16T19:42:56.390Z,47.55
2018-08-16T19:44:00.432Z,47.85
2018-08-16T19:45:04.417Z,47.69
2018-08-16T19:46:07.326Z,48.45
2018-08-16T19:47:13.383Z,47.43
2018-08-16T19:48:20.401Z,47.84
2018-08-16T19:49:23.321Z,47.39
2018-08-16T19:50:26.283Z,48.20
2018-08-16T19:51:33.160Z,48.16
2018-08-16T19:52:36.238Z,48.50
2018-08-16T19:53:39.756Z,47.61
2018-08-16T19:54:42.640Z,47.71
2018-08-16T19:55:45.534Z,47.91
2018-08-16T19:56:48.371Z,48.22
2018-08-16T19:57:51.583Z,47.95
2018-08-16T19:58:54.694Z,47.86
2018-08-16T19:59:58.389Z,48.31
2018-08-16T20:01:01.622Z,49.36
2018-08-16T20:02:04.793Z,49.42
2018-08-16T20:03:09.003Z,48.86
2018-08-16T20:04:14.486Z,49.67
2018-08-16T20:05:17.695Z,49.33
2018-08-16T20:06:21.921Z,50.00
2018-08-16T20:07:26.462Z,48.98
2018-08-16T20:08:29.473Z,48.83
2018-08-16T20:09:32.406Z,49.31
2018-08-16T20:10:36.428Z,48.23
2018-08-16T20:11:41.067Z,47.94
2018-08-16T20:12:44.603Z,47.54
2018-08-16T20:13:48.376Z,48.24
2018-08-16T20:14:52.816Z,48.20
2018-08-16T20:15:55.702Z,48.21
2018-08-16T20:16:59.831Z,47.58
2018-08-16T20:18:02.970Z,48.13
2018-08-16T20:19:07.800Z,49.30
2018-08-16T20:20:10.715Z,49.70
2018-08-16T20:21:14.750Z,49.81
2018-08-16T20:22:20.709Z,50.02
2018-08-16T20:23:25.675Z,49.85
2018-08-16T20:24:29.614Z,50.16
2018-08-16T20:25:32.500Z,50.16
2018-08-16T20:26:37.527Z,49.47
2018-08-16T20:27:40.902Z,49.52
2018-08-16T20:28:44.189Z,49.80
2018-08-16T20:29:48.169Z,50.28
2018-08-16T20:30:51.769Z,50.58
2018-08-16T20:31:56.713Z,50.99
2018-08-16T20:33:02.638Z,51.12